Latest Weather Observations for Moranbah Airport

IDQ60801

Issued at 9:02 pm EST Saturday 29 April 2017 (issued every 30 minutes, with the page automatically refreshed every 10 minutes)

About weather observations | Map of weather stations | Latest weather observations for QLD | Other Formats
Station Details ID: 034035 Name: MORANBAH AIRPORT Lat: -22.06 Lon: 148.08 Height: 232.2 m
Data from the previous 72 hours. | See also: Recent months at Moranbah Airport
Date/Time
EST
Temp
°C
App
Temp
°C
Dew
Point
°C
Rel
Hum
%
Delta-T
°C
Wind Press
QNH
hPa
Press
MSL
hPa
Rain since
9am
mm
Dir  Spd
km/h
Gust
km/h
Spd
kts
Gust
kts
29/09:00pm 17.0 15.0 8.7 58 4.3 SSE 9 13 5 7 1018.5 1017.4 0.0
29/08:30pm 16.5 14.0 8.0 57 4.3 SE 11 13 6 7 1018.3 1017.2 0.0
29/08:00pm 16.8 13.9 8.2 57 4.4 ESE 13 15 7 8 1018.1 1017.0 0.0
29/07:30pm 16.4 13.1 8.1 58 4.2 SE 15 17 8 9 1017.8 1016.7 0.0
29/07:00pm 17.9 15.2 7.3 50 5.4 SE 11 13 6 7 1017.7 1016.6 0.0
29/06:30pm 18.7 15.9 6.9 46 6.0 SE 11 11 6 6 1017.4 1016.3 0.0
29/06:00pm 20.0 17.5 6.7 42 6.8 ESE 9 11 5 6 1017.2 1016.1 0.0
29/05:30pm 22.3 18.9 6.1 35 8.3 ESE 13 15 7 8 1016.9 1015.8 0.0
29/05:00pm 24.1 20.0 6.4 32 9.2 SE 17 24 9 13 1016.4 1015.3 0.0
29/04:30pm 25.0 20.6 6.7 31 9.6 ESE 19 26 10 14 1016.2 1015.1 0.0
29/04:00pm 25.2 20.8 7.3 32 9.5 ESE 20 30 11 16 1015.9 1014.8 0.0
29/03:30pm 25.6 21.5 7.7 32 9.6 SE 19 28 10 15 1015.8 1014.7 0.0
29/03:00pm 25.4 21.1 7.1 31 9.7 ESE 19 26 10 14 1015.9 1014.8 0.0
29/02:30pm 24.6 20.3 6.8 32 9.4 ESE 19 28 10 15 1016.1 1015.0 0.0
29/02:00pm 25.0 20.8 7.6 33 9.3 SE 19 28 10 15 1016.5 1015.4 0.0
29/01:30pm 25.2 21.0 8.2 34 9.2 SE 20 30 11 16 1017.0 1015.9 0.0
29/01:00pm 24.3 20.0 7.0 33 9.1 ESE 19 26 10 14 1017.4 1016.3 0.0
29/12:30pm 24.1 19.8 7.7 35 8.7 ESE 20 30 11 16 1017.9 1016.8 0.0
29/12:00pm 23.6 19.4 7.3 35 8.6 E 19 30 10 16 1018.5 1017.4 0.0
29/11:30am 22.8 18.5 7.8 38 7.9 SE 20 30 11 16 1019.2 1018.1 0.0
29/11:00am 22.2 17.9 8.0 40 7.5 SE 20 30 11 16 1019.5 1018.4 0.0
29/10:30am 21.2 16.7 7.1 40 7.3 ESE 20 33 11 18 1019.7 1018.6 0.0
29/10:00am 20.6 16.2 7.6 43 6.8 SE 20 28 11 15 1019.7 1018.6 0.0
29/09:30am 19.0 13.5 5.8 42 6.6 SE 24 33 13 18 1019.9 1018.8 0.0
29/09:00am 17.7 12.1 5.3 44 6.0 SE 24 30 13 16 1020.0 1018.9 0.0
29/08:30am 16.8 12.4 4.8 45 5.8 SE 17 24 9 13 1019.8 1018.7 0.0
29/08:00am 14.6 12.0 4.0 49 4.9 SSE 7 11 4 6 1019.5 1018.4 0.0
29/07:30am 10.1 9.3 6.3 77 1.8 CALM 0 0 0 0 1019.3 1018.2 0.0
29/07:00am 6.0 4.2 3.5 84 1.1 SW 2 6 1 3 1019.2 1018.1 0.0
29/06:30am 4.7 2.3 2.2 84 1.0 WSW 4 7 2 4 1018.6 1017.5 0.0
29/06:00am 4.7 2.3 2.1 83 1.1 WSW 4 6 2 3 1018.3 1017.2 0.0
29/05:30am 5.3 3.7 2.7 83 1.1 CALM 0 0 0 0 1018.2 1017.1 0.0
29/05:00am 5.3 3.6 2.1 80 1.3 CALM 0 0 0 0 1018.1 1017.0 0.0
29/04:30am 5.9 3.0 2.4 78 1.4 WSW 7 7 4 4 1018.0 1016.9 0.0
29/04:00am 6.9 4.3 3.0 76 1.7 WNW 6 6 3 3 1017.9 1016.8 0.0
29/03:30am 6.0 4.3 1.9 75 1.7 CALM 0 0 0 0 1018.1 1017.0 0.0
29/03:00am 7.2 5.5 2.1 70 2.1 CALM 0 0 0 0 1018.0 1016.9 0.0
29/02:30am 7.4 5.8 2.5 71 2.1 CALM 0 0 0 0 1018.0 1016.9 0.0
29/02:00am 8.1 5.7 1.9 65 2.6 SSE 4 6 2 3 1018.3 1017.2 0.0
29/01:30am 7.8 5.1 2.5 69 2.2 SSE 6 7 3 4 1018.4 1017.3 0.0
29/01:00am 8.5 5.1 1.9 63 2.8 SE 9 9 5 5 1018.5 1017.4 0.0
29/12:30am 10.5 7.2 2.4 57 3.5 ESE 9 11 5 6 1018.6 1017.5 0.0
29/12:00am 11.1 6.6 2.4 55 3.8 SE 15 15 8 8 1018.7 1017.6 0.0
 
Date/Time
EST
Temp
°C
App
Temp
°C
Dew
Point
°C
Rel
Hum
%
Delta-T
°C
Wind Press
QNH
hPa
Press
MSL
hPa
Rain since
9am
mm
Dir  Spd
km/h
Gust
km/h
Spd
kts
Gust
kts
28/11:30pm 12.0 7.4 3.5 56 3.8 SSE 17 20 9 11 1018.7 1017.6 0.0
28/11:00pm 11.3 6.9 2.9 56 3.7 SSE 15 17 8 9 1018.7 1017.6 0.0
28/10:30pm 10.6 7.1 3.4 61 3.2 SE 11 13 6 7 1018.8 1017.7 0.0
28/10:00pm 10.0 7.2 3.3 63 2.9 SE 7 11 4 6 1019.0 1017.9 0.0
28/09:30pm 10.3 7.6 2.9 60 3.2 NNW 6 7 3 4 1019.0 1017.9 0.0
28/09:00pm 11.9 8.3 2.9 54 4.0 SE 11 11 6 6 1018.5 1017.4 0.0
28/08:30pm 12.8 9.2 2.9 51 4.4 SE 11 13 6 7 1018.2 1017.1 0.0
28/08:00pm 12.0 8.0 3.0 54 4.0 SE 13 15 7 8 1018.0 1016.9 0.0
28/07:30pm 13.8 9.9 3.6 50 4.7 SE 13 13 7 7 1017.8 1016.7 0.0
28/07:00pm 12.8 8.8 2.9 51 4.4 SE 13 15 7 8 1017.5 1016.4 0.0
28/06:30pm 14.7 10.7 2.6 44 5.5 SSE 13 15 7 8 1016.9 1015.8 0.0
28/06:00pm 16.6 12.1 1.9 37 6.6 SSE 15 17 8 9 1016.6 1015.5 0.0
28/05:30pm 19.4 14.5 1.9 31 8.1 SSE 17 19 9 10 1016.5 1015.4 0.0
28/05:00pm 21.2 16.3 2.0 28 9.0 SSE 17 20 9 11 1015.9 1014.8 0.0
28/04:30pm 22.0 16.6 1.1 25 9.7 SSE 19 30 10 16 1015.8 1014.7 0.0
28/04:00pm 22.8 18.6 1.8 25 9.9 S 13 22 7 12 1015.5 1014.4 0.0
28/03:30pm 23.1 19.3 1.5 24 10.2 S 11 19 6 10 1015.4 1014.3 0.0
28/03:00pm 23.1 18.9 1.5 24 10.2 S 13 20 7 11 1015.5 1014.4 0.0
28/02:30pm 22.9 18.7 1.9 25 10.0 S 13 20 7 11 1015.7 1014.6 0.0
28/02:00pm 21.9 17.5 0.4 24 9.8 SSW 13 24 7 13 1015.7 1014.6 0.0
28/01:30pm 22.1 17.4 1.2 25 9.7 SSW 15 24 8 13 1016.1 1015.0 0.0
28/01:00pm 21.0 16.5 -0.3 24 9.5 WSW 13 20 7 11 1016.8 1015.7 0.0
28/12:30pm 20.6 16.1 -0.1 25 9.3 SSW 13 17 7 9 1017.3 1016.2 0.0
28/12:00pm 19.7 16.0 0.2 27 8.7 SSE 9 17 5 9 1018.0 1016.9 0.0
28/11:30am 19.5 16.4 1.5 30 8.3 S 7 13 4 7 1018.7 1017.6 0.0
28/11:00am 18.5 13.8 0.6 30 8.0 S 15 26 8 14 1019.4 1018.3 0.0
28/10:30am 18.0 13.0 1.1 32 7.6 SSE 17 28 9 15 1020.0 1018.9 0.0
28/10:00am 18.1 12.5 1.2 32 7.6 SSE 20 32 11 17 1020.3 1019.2 0.0
28/09:30am 17.3 11.3 1.3 34 7.2 SE 22 30 12 16 1020.4 1019.3 0.0
28/09:00am 16.2 9.1 1.1 36 6.7 SSE 28 35 15 19 1020.4 1019.3 0.0
28/08:30am 15.3 9.8 2.1 41 5.9 SE 20 30 11 16 1020.4 1019.3 0.0
28/08:00am 14.3 10.8 3.5 48 4.9 SE 11 15 6 8 1020.1 1019.0 0.0
28/07:30am 11.8 9.3 3.6 57 3.7 SE 6 9 3 5 1019.7 1018.6 0.0
28/07:00am 8.9 6.1 3.3 68 2.4 ESE 7 7 4 4 1019.5 1018.4 0.0
28/06:30am 7.0 5.4 2.5 73 1.9 CALM 0 0 0 0 1019.1 1018.0 0.0
28/06:00am 7.3 4.1 2.8 73 1.9 SE 9 11 5 6 1018.8 1017.7 0.0
28/05:30am 7.6 5.0 3.1 73 1.9 SSE 6 9 3 5 1018.6 1017.5 0.0
28/05:00am 8.4 5.2 3.3 70 2.2 SE 9 13 5 7 1018.2 1017.1 0.0
28/04:30am 9.0 5.5 3.6 69 2.4 ESE 11 13 6 7 1018.0 1016.9 0.0
28/04:00am 9.3 6.0 4.3 71 2.2 ESE 11 13 6 7 1017.8 1016.7 0.0
28/03:30am 10.5 7.7 5.1 69 2.5 E 9 11 5 6 1017.7 1016.6 0.0
28/03:00am 11.4 7.7 4.2 61 3.3 ESE 13 15 7 8 1017.9 1016.8 0.0
28/02:30am 13.1 8.7 4.8 57 3.9 SE 17 22 9 12 1017.9 1016.8 0.0
28/02:00am 10.9 7.3 5.2 68 2.6 SE 13 15 7 8 1018.2 1017.1 0.0
28/01:30am 11.0 8.8 5.1 67 2.7 ENE 6 9 3 5 1018.0 1016.9 0.0
28/01:00am 13.1 9.2 5.5 60 3.6 SSE 15 17 8 9 1017.8 1016.7 0.0
28/12:30am 14.7 11.5 5.2 53 4.5 S 11 15 6 8 1017.6 1016.5 0.0
28/12:00am 14.8 11.3 5.3 53 4.5 S 13 15 7 8 1017.5 1016.4 0.0
 
Date/Time
EST
Temp
°C
App
Temp
°C
Dew
Point
°C
Rel
Hum
%
Delta-T
°C
Wind Press
QNH
hPa
Press
MSL
hPa
Rain since
9am
mm
Dir  Spd
km/h
Gust
km/h
Spd
kts
Gust
kts
27/11:30pm 15.5 12.2 6.2 54 4.6 S 13 17 7 9 1017.4 1016.3 0.0
27/11:00pm 15.6 12.9 7.4 58 4.1 S 11 13 6 7 1017.4 1016.3 0.0
27/10:30pm 16.1 13.6 8.1 59 4.1 S 11 15 6 8 1017.5 1016.4 0.0
27/10:00pm 16.3 13.7 7.8 57 4.3 SSE 11 13 6 7 1017.2 1016.1 0.0
27/09:30pm 17.4 14.8 9.3 59 4.3 S 13 19 7 10 1017.1 1016.0 0.0
27/09:00pm 17.9 15.9 10.0 60 4.2 S 11 13 6 7 1016.8 1015.7 0.0
27/08:30pm 18.4 16.4 10.3 59 4.4 SSW 11 13 6 7 1016.5 1015.4 0.0
27/08:00pm 18.1 16.9 10.2 60 4.3 SSW 7 9 4 5 1016.2 1015.1 0.0
27/07:30pm 18.5 16.9 10.1 58 4.5 S 9 11 5 6 1015.6 1014.5 0.0
27/07:00pm 19.1 17.2 10.4 57 4.7 SE 11 13 6 7 1015.1 1014.0 0.0
27/06:30pm 21.5 19.5 10.3 49 6.2 S 11 13 6 7 1014.9 1013.8 0.0
27/06:00pm 23.0 21.0 10.1 44 7.1 S 11 15 6 8 1014.6 1013.5 0.0
27/05:30pm 24.3 22.7 10.2 41 7.9 S 9 15 5 8 1014.1 1013.0 0.0
27/05:00pm 25.2 22.9 10.3 39 8.4 SSW 13 20 7 11 1013.6 1012.5 0.0
27/04:30pm 25.8 23.5 10.4 38 8.7 SSW 13 20 7 11 1013.3 1012.2 0.0
27/04:00pm 26.1 22.6 10.3 37 8.9 SSW 19 28 10 15 1013.1 1012.0 0.0
27/03:30pm 26.2 23.2 10.8 38 8.8 SSW 17 26 9 14 1013.2 1012.1 0.0
27/03:00pm 26.7 24.2 12.4 41 8.4 SSW 17 28 9 15 1013.3 1012.2 0.0
27/02:30pm 25.9 23.1 12.7 44 7.7 SW 19 26 10 14 1013.3 1012.2 0.0
27/02:00pm 26.8 25.1 13.5 44 7.9 S 15 28 8 15 1013.4 1012.3 0.0
27/01:30pm 25.6 23.6 12.8 45 7.5 SSW 15 24 8 13 1013.7 1012.6 0.0
27/01:00pm 25.9 24.8 13.1 45 7.5 SE 11 17 6 9 1013.8 1012.7 0.0
27/12:30pm 26.5 26.0 13.9 45 7.5 SSE 9 17 5 9 1014.1 1013.0 0.0
27/12:00pm 25.3 23.9 13.5 48 7.0 SSE 13 26 7 14 1014.5 1013.4 0.0
27/11:30am 25.6 24.3 13.8 48 7.0 SE 13 22 7 12 1015.0 1013.9 0.0
27/11:00am 25.3 24.0 13.8 49 6.8 SE 13 22 7 12 1015.4 1014.3 0.0
27/10:30am 25.1 23.4 14.6 52 6.3 SE 17 24 9 13 1015.8 1014.7 0.0
27/10:00am 24.1 22.1 13.9 53 6.0 SE 17 28 9 15 1015.9 1014.8 0.0
27/09:30am 23.9 21.7 14.3 55 5.7 SSE 19 28 10 15 1016.0 1014.9 0.0
27/09:00am 23.4 21.1 13.0 52 6.0 S 17 24 9 13 1015.9 1014.8 0.0
27/08:30am 23.0 21.4 13.8 56 5.4 S 15 19 8 10 1015.7 1014.6 0.0
27/08:00am 22.4 20.6 13.2 56 5.3 SSW 15 20 8 11 1015.4 1014.3 0.0
27/07:30am 22.1 21.3 14.0 60 4.8 S 11 19 6 10 1015.1 1014.0 0.0
27/07:00am 21.3 20.3 16.7 75 2.8 SE 17 20 9 11 1014.6 1013.5 0.0
27/06:30am 20.1 20.3 16.7 81 2.1 SE 11 19 6 10 1014.4 1013.3 0.0
27/06:00am 20.3 20.2 16.1 77 2.5 ESE 11 13 6 7 1014.0 1012.9 0.0
27/05:30am 21.3 20.5 16.0 72 3.2 SE 15 19 8 10 1013.7 1012.6 0.0
27/05:00am 21.9 20.7 16.0 69 3.6 SSE 17 20 9 11 1013.5 1012.4 0.0
27/04:30am 21.2 20.9 14.4 65 4.0 S 9 15 5 8 1013.2 1012.1 0.0
27/04:00am 21.6 20.8 14.0 62 4.5 SSW 11 15 6 8 1013.1 1012.0 0.0
27/03:30am 21.6 20.6 14.5 64 4.2 SSW 13 17 7 9 1012.8 1011.6 0.0
27/03:00am 20.6 21.1 15.6 73 3.0 SW 7 9 4 5 1012.8 1011.6 0.0
27/02:30am 19.6 20.7 15.5 77 2.4 W 4 9 2 5 1012.9 1011.7 0.0
27/02:00am 20.2 20.7 15.6 75 2.8 ENE 7 9 4 5 1013.1 1012.0 0.0
27/01:30am 20.1 20.5 15.3 74 2.9 ESE 7 9 4 5 1013.3 1012.2 0.0
27/01:00am 20.9 21.2 15.0 69 3.5 NNE 7 9 4 5 1013.4 1012.3 0.0
27/12:30am 22.2 22.9 15.5 66 4.0 WNW 6 7 3 4 1013.4 1012.3 0.0
27/12:00am 23.0 21.7 15.8 64 4.4 WNW 17 24 9 13 1013.5 1012.4 0.0
 
Date/Time
EST
Temp
°C
App
Temp
°C
Dew
Point
°C
Rel
Hum
%
Delta-T
°C
Wind Press
QNH
hPa
Press
MSL
hPa
Rain since
9am
mm
Dir  Spd
km/h
Gust
km/h
Spd
kts
Gust
kts
26/11:30pm 20.6 20.3 14.5 68 3.6 NW 9 11 5 6 1013.0 1011.9 0.0
26/11:00pm 20.0 20.1 14.4 70 3.3 NW 7 9 4 5 1012.8 1011.6 0.0
26/10:30pm 19.7 21.1 14.3 71 3.2 CALM 0 0 0 0 1012.8 1011.6 0.0
26/10:00pm 19.6 20.7 13.5 68 3.5 CALM 0 0 0 0 1012.6 1011.4 0.0
26/09:30pm 20.9 22.1 13.8 64 4.1 CALM 0 0 0 0 1012.5 1011.3 0.0

Other Formats:

Comma delimited format used in spreadsheet applications
http://www.bom.gov.au/fwo/IDQ60801/IDQ60801.94397.axf

JavaScript Object Notation format (JSON) in row-major order
http://www.bom.gov.au/fwo/IDQ60801/IDQ60801.94397.json